createdAt,value
2018-05-31T00:58:42.285Z,21.40
2018-05-31T01:01:10.026Z,20.63
2018-05-31T01:03:37.890Z,19.50
2018-05-31T01:06:05.409Z,18.10
2018-05-31T01:08:33.017Z,23.17
2018-05-31T01:11:00.513Z,18.73
2018-05-31T01:13:28.038Z,19.43
2018-05-31T01:15:55.609Z,24.00
2018-05-31T01:18:23.669Z,20.80
2018-05-31T01:20:51.730Z,20.43
2018-05-31T01:23:19.252Z,18.97
2018-05-31T01:25:47.054Z,19.73
2018-05-31T01:28:14.650Z,23.33
2018-05-31T01:30:42.581Z,21.20
2018-05-31T01:33:10.458Z,25.20
2018-05-31T01:35:37.957Z,20.27
2018-05-31T01:38:32.219Z,25.07
2018-05-31T01:40:59.725Z,21.00
2018-05-31T01:43:28.149Z,26.43
2018-05-31T01:45:56.241Z,21.13
2018-05-31T01:48:23.751Z,27.37
2018-05-31T01:50:51.519Z,20.07
2018-05-31T01:53:19.022Z,25.20
2018-05-31T01:55:46.521Z,20.00
2018-05-31T01:58:14.026Z,21.30
2018-05-31T02:00:41.861Z,21.90
2018-05-31T02:03:09.612Z,27.17
2018-05-31T02:05:37.912Z,22.60
2018-05-31T02:08:05.654Z,21.97
2018-05-31T02:10:33.175Z,22.70
2018-05-31T02:13:00.814Z,22.00
2018-05-31T02:15:28.331Z,27.43
2018-05-31T02:17:56.599Z,22.57
2018-05-31T02:20:24.865Z,29.27
2018-05-31T02:22:53.063Z,22.97
2018-05-31T02:25:20.729Z,22.10
2018-05-31T02:27:48.225Z,27.87
2018-05-31T02:30:15.734Z,22.60
2018-05-31T02:32:43.290Z,28.97
2018-05-31T02:35:10.986Z,23.47
2018-05-31T02:37:38.484Z,22.50
2018-05-31T02:40:06.190Z,29.17
2018-05-31T02:42:33.706Z,24.13
2018-05-31T02:45:01.423Z,23.13
2018-05-31T02:47:28.936Z,23.63
2018-05-31T02:49:56.428Z,29.17
2018-05-31T02:52:23.975Z,24.50
2018-05-31T02:54:51.486Z,28.67
2018-05-31T02:57:19.105Z,23.63
2018-05-31T02:59:46.756Z,22.80
2018-05-31T03:02:14.304Z,23.23
2018-05-31T03:04:42.695Z,27.60
2018-05-31T03:07:10.757Z,21.83
2018-05-31T03:09:38.262Z,27.17
2018-05-31T03:12:05.779Z,22.87
2018-05-31T03:14:33.336Z,22.23
2018-05-31T03:17:01.205Z,29.63
2018-05-31T03:19:28.898Z,21.43
2018-05-31T03:21:56.411Z,21.67
2018-05-31T03:24:25.414Z,29.33
2018-05-31T03:26:53.303Z,21.83
2018-05-31T03:29:20.847Z,28.10
2018-05-31T03:31:48.777Z,24.07
2018-05-31T03:34:16.271Z,29.53
2018-05-31T03:36:43.934Z,25.03
2018-05-31T03:39:11.445Z,30.50
2018-05-31T03:41:39.264Z,22.60
2018-05-31T03:44:06.798Z,30.50
2018-05-31T03:46:35.620Z,25.13
2018-05-31T03:49:03.135Z,26.87
2018-05-31T03:51:31.156Z,23.87
2018-05-31T03:53:59.287Z,27.37
2018-05-31T03:56:27.553Z,22.10
2018-05-31T03:58:55.063Z,25.63
2018-05-31T04:01:23.212Z,20.80
2018-05-31T04:03:50.880Z,26.70
2018-05-31T04:06:18.393Z,20.50
2018-05-31T04:08:46.402Z,19.73
2018-05-31T04:11:14.074Z,24.27
2018-05-31T04:13:41.602Z,18.57
2018-05-31T04:16:09.190Z,24.00
2018-05-31T04:18:36.693Z,18.83
2018-05-31T04:21:04.513Z,22.57
2018-05-31T04:23:32.029Z,17.70
2018-05-31T04:25:59.535Z,19.97
2018-05-31T04:28:27.031Z,16.73
2018-05-31T04:30:56.056Z,19.90
2018-05-31T04:33:24.461Z,15.53
2018-05-31T04:35:51.979Z,19.00
2018-05-31T04:38:19.827Z,13.80
2018-05-31T04:40:47.463Z,12.60
2018-05-31T04:43:15.312Z,15.90
2018-05-31T04:45:42.975Z,11.60
2018-05-31T04:48:13.512Z,15.30
2018-05-31T04:50:41.164Z,13.33
2018-05-31T04:53:09.223Z,17.60
2018-05-31T04:55:38.133Z,13.57
2018-05-31T04:58:05.777Z,16.47
2018-05-31T05:00:33.333Z,11.57
2018-05-31T05:03:01.153Z,12.03
2018-05-31T05:05:28.636Z,13.90
2018-05-31T05:07:56.157Z,12.20
2018-05-31T05:10:23.701Z,15.93
2018-05-31T05:12:51.522Z,12.47
2018-05-31T05:15:19.133Z,15.40
2018-05-31T05:17:46.640Z,11.73
2018-05-31T05:20:15.183Z,11.00
2018-05-31T05:22:42.697Z,15.27
2018-05-31T05:25:10.757Z,11.60
2018-05-31T05:27:38.288Z,10.90
2018-05-31T05:30:05.783Z,11.50
2018-05-31T05:32:33.840Z,11.90
2018-05-31T05:35:01.311Z,11.03
2018-05-31T05:37:28.814Z,10.73
2018-05-31T05:39:56.871Z,14.60
2018-05-31T05:42:24.372Z,11.00
2018-05-31T05:44:51.902Z,11.67
2018-05-31T05:47:19.397Z,10.90
2018-05-31T05:49:47.672Z,10.90
2018-05-31T05:52:16.006Z,9.07
2018-05-31T05:54:43.792Z,8.87
2018-05-31T05:57:12.110Z,8.20
2018-05-31T05:59:39.616Z,8.60
2018-05-31T06:02:07.125Z,8.00
2018-05-31T06:04:34.647Z,11.50
2018-05-31T06:07:02.385Z,8.60
2018-05-31T06:09:29.947Z,8.27
2018-05-31T06:11:57.888Z,7.97
2018-05-31T06:14:26.162Z,7.10
2018-05-31T06:16:53.658Z,7.53
2018-05-31T06:19:21.184Z,7.80
2018-05-31T06:21:48.708Z,7.93
2018-05-31T06:24:16.595Z,8.27
2018-05-31T06:26:44.230Z,7.90
2018-05-31T06:29:11.776Z,7.73
2018-05-31T06:31:39.860Z,7.90
2018-05-31T06:34:08.434Z,8.13
2018-05-31T06:36:35.941Z,8.47
2018-05-31T06:39:03.437Z,8.30
2018-05-31T06:41:30.980Z,7.53
2018-05-31T06:43:58.493Z,8.17
2018-05-31T06:46:26.257Z,8.57
2018-05-31T06:48:53.761Z,8.30
2018-05-31T06:51:21.596Z,8.63
2018-05-31T06:53:49.097Z,8.45
2018-05-31T06:56:16.605Z,8.75
2018-05-31T06:58:45.206Z,9.15
2018-05-31T07:01:12.693Z,8.73
2018-05-31T07:03:40.969Z,8.60
2018-05-31T07:06:08.476Z,9.18
2018-05-31T07:08:36.006Z,9.30
2018-05-31T07:11:04.018Z,9.43
2018-05-31T07:13:31.508Z,9.48
2018-05-31T07:15:59.045Z,9.40
2018-05-31T07:18:27.307Z,9.73
2018-05-31T07:20:54.875Z,10.35
2018-05-31T07:23:22.370Z,10.32
2018-05-31T07:25:50.665Z,9.73
2018-05-31T07:28:18.168Z,10.55
2018-05-31T07:30:45.667Z,11.48
2018-05-31T07:33:13.191Z,10.98
2018-05-31T07:35:40.699Z,10.13
2018-05-31T07:38:08.612Z,10.70
2018-05-31T07:40:36.119Z,11.60
2018-05-31T07:43:03.606Z,10.50
2018-05-31T07:45:31.874Z,10.60
2018-05-31T07:47:59.774Z,12.25
2018-05-31T07:50:27.332Z,11.40
2018-05-31T07:52:56.138Z,12.05
2018-05-31T07:55:24.220Z,11.90
2018-05-31T07:57:51.775Z,11.95
2018-05-31T08:00:19.274Z,10.52
2018-05-31T08:02:46.765Z,11.50
2018-05-31T08:05:14.461Z,12.90
2018-05-31T08:07:42.519Z,12.05
2018-05-31T08:10:10.016Z,13.48
2018-05-31T08:12:37.625Z,13.93
2018-05-31T08:15:05.589Z,12.70
2018-05-31T08:17:33.079Z,13.50
2018-05-31T08:20:00.582Z,13.52
2018-05-31T08:22:30.827Z,14.05
2018-05-31T08:24:59.163Z,13.35
2018-05-31T08:27:27.028Z,12.75
2018-05-31T08:29:54.549Z,14.00
2018-05-31T08:32:23.917Z,13.62
2018-05-31T08:34:51.995Z,13.98
2018-05-31T08:37:19.813Z,14.35
2018-05-31T08:39:47.637Z,14.35
2018-05-31T08:42:15.120Z,15.07
2018-05-31T08:44:42.640Z,14.80
2018-05-31T08:47:10.148Z,13.00
2018-05-31T08:49:37.681Z,13.55
2018-05-31T08:52:05.348Z,15.40
2018-05-31T08:54:32.860Z,16.20
2018-05-31T08:57:00.567Z,15.85
2018-05-31T08:59:28.135Z,14.90
2018-05-31T09:01:56.146Z,14.48
2018-05-31T09:04:24.866Z,14.57
2018-05-31T09:06:53.127Z,16.05
2018-05-31T09:09:21.408Z,15.50
2018-05-31T09:11:49.678Z,14.55
2018-05-31T09:14:17.982Z,14.13
2018-05-31T09:16:45.969Z,13.98
2018-05-31T09:19:13.496Z,14.18
2018-05-31T09:21:42.288Z,14.45
2018-05-31T09:24:10.561Z,12.77
2018-05-31T09:26:38.970Z,13.43
2018-05-31T09:29:06.461Z,12.68
2018-05-31T09:31:34.041Z,13.55
2018-05-31T09:34:01.489Z,12.82
2018-05-31T09:36:29.325Z,13.05
2018-05-31T09:38:57.399Z,12.23
2018-05-31T09:41:25.800Z,13.75
2018-05-31T09:43:53.916Z,14.20
2018-05-31T09:46:21.437Z,12.70
2018-05-31T09:48:49.335Z,12.07
2018-05-31T09:51:16.857Z,11.98
2018-05-31T09:53:44.381Z,14.18
2018-05-31T09:56:11.930Z,12.68
2018-05-31T09:58:39.680Z,13.13
2018-05-31T10:01:07.262Z,12.93
2018-05-31T10:03:35.592Z,12.43
2018-05-31T10:06:03.098Z,12.25
2018-05-31T10:08:30.602Z,12.52
2018-05-31T10:10:58.106Z,11.65
2018-05-31T10:13:25.687Z,12.25
2018-05-31T10:15:57.435Z,11.27
2018-05-31T10:18:29.121Z,12.18
2018-05-31T10:21:01.501Z,10.80
2018-05-31T10:23:31.877Z,11.02
2018-05-31T10:26:02.817Z,11.50
2018-05-31T10:28:32.887Z,10.15
2018-05-31T10:31:18.269Z,9.80
2018-05-31T10:33:48.284Z,9.57
2018-05-31T10:36:27.616Z,13.18
2018-05-31T10:39:00.634Z,11.00
2018-05-31T10:41:28.173Z,11.85
2018-05-31T10:43:55.886Z,9.43
2018-05-31T10:46:23.416Z,10.40
2018-05-31T10:48:51.710Z,10.82
2018-05-31T10:51:19.264Z,11.60
2018-05-31T10:53:46.873Z,12.18
2018-05-31T10:56:16.586Z,11.40
2018-05-31T10:58:44.136Z,10.95
2018-05-31T11:01:11.816Z,11.07
2018-05-31T11:03:39.331Z,11.23
2018-05-31T11:06:12.306Z,11.10
2018-05-31T11:08:41.049Z,10.80
2018-05-31T11:11:09.037Z,10.73
2018-05-31T11:13:36.551Z,11.10
2018-05-31T11:16:04.612Z,10.83
2018-05-31T11:18:32.129Z,11.40
2018-05-31T11:20:59.654Z,11.10
2018-05-31T11:23:27.168Z,10.83
2018-05-31T11:25:54.691Z,11.83
2018-05-31T11:28:23.367Z,11.30
2018-05-31T11:30:50.861Z,10.87
2018-05-31T11:33:18.695Z,10.23
2018-05-31T11:35:46.966Z,10.80
2018-05-31T11:38:15.561Z,9.80
2018-05-31T11:40:43.052Z,11.10
2018-05-31T11:43:11.216Z,10.83
2018-05-31T11:45:38.700Z,11.00
2018-05-31T11:48:06.284Z,12.63
2018-05-31T11:50:33.820Z,11.63
2018-05-31T11:53:01.451Z,11.33
2018-05-31T11:55:29.299Z,10.73
2018-05-31T11:57:56.815Z,9.97
2018-05-31T12:00:24.946Z,9.93
2018-05-31T12:02:52.488Z,11.00
2018-05-31T12:05:20.065Z,11.27
2018-05-31T12:07:47.708Z,11.40
2018-05-31T12:10:15.228Z,11.13
2018-05-31T12:12:43.500Z,10.50
2018-05-31T12:15:11.181Z,10.60
2018-05-31T12:17:38.815Z,10.27
2018-05-31T12:20:07.604Z,10.33
2018-05-31T12:22:35.341Z,9.67
2018-05-31T12:25:02.901Z,10.23
2018-05-31T12:27:30.750Z,10.10
2018-05-31T12:29:58.261Z,10.73
2018-05-31T12:32:25.790Z,11.37
2018-05-31T12:34:53.834Z,10.73
2018-05-31T12:37:21.498Z,10.30
2018-05-31T12:39:49.568Z,9.50
2018-05-31T12:42:17.060Z,9.43
2018-05-31T12:44:44.558Z,9.53
2018-05-31T12:47:12.443Z,9.00
2018-05-31T12:49:40.316Z,8.93
2018-05-31T12:52:08.004Z,9.90
2018-05-31T12:54:35.512Z,9.13
2018-05-31T12:57:03.413Z,9.70
2018-05-31T12:59:31.054Z,9.13
2018-05-31T13:01:58.572Z,8.83
2018-05-31T13:04:26.072Z,9.40
2018-05-31T13:06:53.861Z,9.70
2018-05-31T13:09:21.359Z,9.47
2018-05-31T13:11:49.376Z,9.30
2018-05-31T13:14:17.639Z,8.30
2018-05-31T13:16:45.191Z,9.10
2018-05-31T13:19:13.474Z,9.10
2018-05-31T13:21:41.127Z,8.07
2018-05-31T13:24:09.027Z,8.60
2018-05-31T13:26:36.797Z,7.67
2018-05-31T13:29:04.327Z,8.20
2018-05-31T13:31:31.829Z,8.90
2018-05-31T13:33:59.693Z,8.87
2018-05-31T13:36:27.566Z,8.60
2018-05-31T13:38:55.488Z,9.20
2018-05-31T13:41:23.105Z,7.97
2018-05-31T13:43:50.655Z,7.50
2018-05-31T13:46:18.251Z,8.13
2018-05-31T13:48:46.203Z,7.90
2018-05-31T13:51:13.710Z,8.20
2018-05-31T13:53:41.431Z,7.47
2018-05-31T13:56:09.073Z,8.47
2018-05-31T13:58:36.706Z,8.53
2018-05-31T14:01:04.658Z,8.37
2018-05-31T14:03:32.184Z,8.33
2018-05-31T14:06:00.464Z,8.93
2018-05-31T14:08:28.244Z,8.77
2018-05-31T14:10:55.944Z,9.20
2018-05-31T14:13:23.432Z,8.70
2018-05-31T14:15:51.063Z,8.53
2018-05-31T14:18:18.582Z,8.63
2018-05-31T14:20:46.843Z,8.30
2018-05-31T14:23:14.341Z,8.97
2018-05-31T14:25:41.837Z,8.60
2018-05-31T14:28:10.305Z,8.80
2018-05-31T14:30:38.282Z,9.03
2018-05-31T14:33:05.804Z,9.13
2018-05-31T14:35:33.338Z,8.43
2018-05-31T14:38:01.609Z,8.13
2018-05-31T14:40:29.424Z,7.87
2018-05-31T14:42:56.925Z,8.17
2018-05-31T14:45:25.197Z,8.63
2018-05-31T14:47:52.930Z,8.47
2018-05-31T14:50:20.559Z,8.40
2018-05-31T14:52:49.723Z,8.70
2018-05-31T14:55:18.087Z,7.57
2018-05-31T14:57:45.579Z,7.83
2018-05-31T15:00:13.732Z,7.90
2018-05-31T15:02:42.001Z,7.77
2018-05-31T15:05:09.543Z,8.27
2018-05-31T15:07:37.046Z,8.43
2018-05-31T15:10:05.240Z,8.73
2018-05-31T15:12:32.859Z,8.30
2018-05-31T15:15:00.591Z,8.20
2018-05-31T15:17:28.229Z,8.23
2018-05-31T15:19:56.261Z,7.93
2018-05-31T15:22:24.532Z,8.60
2018-05-31T15:24:52.911Z,7.93
2018-05-31T15:27:20.455Z,8.27
2018-05-31T15:29:49.094Z,8.17
2018-05-31T15:32:16.590Z,7.80
2018-05-31T15:34:44.799Z,7.80
2018-05-31T15:37:13.100Z,7.90
2018-05-31T15:39:40.671Z,7.33
2018-05-31T15:42:08.290Z,7.30
2018-05-31T15:44:36.173Z,7.83
2018-05-31T15:47:04.140Z,7.70
2018-05-31T15:49:32.440Z,7.57
2018-05-31T15:51:59.939Z,7.80
2018-05-31T15:54:27.729Z,7.60
2018-05-31T15:56:55.980Z,7.60
2018-05-31T15:59:23.539Z,8.10
2018-05-31T16:01:51.452Z,7.43
2018-05-31T16:04:18.940Z,7.57
2018-05-31T16:06:46.436Z,7.20
2018-05-31T16:09:14.715Z,7.43
2018-05-31T16:11:43.128Z,7.80
2018-05-31T16:14:11.004Z,7.90
2018-05-31T16:16:38.514Z,7.53
2018-05-31T16:19:06.776Z,8.10
2018-05-31T16:21:34.315Z,7.87
2018-05-31T16:24:02.881Z,7.67
2018-05-31T16:26:30.415Z,8.13
2018-05-31T16:28:58.172Z,8.10
2018-05-31T16:31:25.691Z,7.53
2018-05-31T16:33:53.316Z,7.77
2018-05-31T16:36:21.410Z,8.17
2018-05-31T16:38:48.948Z,9.73
2018-05-31T16:41:16.438Z,8.27
2018-05-31T16:43:44.076Z,8.27
2018-05-31T16:46:12.130Z,7.43
2018-05-31T16:48:39.784Z,7.87
2018-05-31T16:51:07.315Z,8.10
2018-05-31T16:53:35.407Z,7.07
2018-05-31T16:56:02.919Z,7.27
2018-05-31T16:58:30.469Z,6.70
2018-05-31T17:00:57.952Z,6.50
2018-05-31T17:03:27.315Z,6.30
2018-05-31T17:05:55.148Z,6.60
2018-05-31T17:08:22.643Z,7.50
2018-05-31T17:10:50.156Z,8.10
2018-05-31T17:13:18.416Z,7.33
2018-05-31T17:15:46.219Z,10.47
2018-05-31T17:18:13.726Z,8.17
2018-05-31T17:20:42.675Z,8.33
2018-05-31T17:23:10.238Z,8.40
2018-05-31T17:25:37.742Z,8.75
2018-05-31T17:28:05.291Z,8.20
2018-05-31T17:30:32.803Z,8.63
2018-05-31T17:33:00.669Z,10.37
2018-05-31T17:35:28.964Z,8.47
2018-05-31T17:37:56.469Z,7.97
2018-05-31T17:40:23.975Z,8.80
2018-05-31T17:42:51.549Z,8.10
2018-05-31T17:45:19.198Z,7.87
2018-05-31T17:47:46.956Z,7.77
2018-05-31T17:50:14.468Z,7.40
2018-05-31T17:52:42.259Z,6.73
2018-05-31T17:55:09.777Z,7.37
2018-05-31T17:57:37.297Z,7.47
2018-05-31T18:00:04.843Z,6.97
2018-05-31T18:02:32.360Z,6.63
2018-05-31T18:04:59.864Z,6.57
2018-05-31T18:07:27.441Z,6.30
2018-05-31T18:09:54.998Z,6.10
2018-05-31T18:12:22.528Z,6.10
2018-05-31T18:14:50.254Z,7.47
2018-05-31T18:17:18.569Z,5.20
2018-05-31T18:19:47.353Z,5.67
2018-05-31T18:22:15.064Z,5.93
2018-05-31T18:24:42.696Z,5.90
2018-05-31T18:27:10.196Z,5.80
2018-05-31T18:29:38.153Z,7.43
2018-05-31T18:32:05.666Z,6.57
2018-05-31T18:34:33.962Z,6.40
2018-05-31T18:37:01.517Z,4.83
2018-05-31T18:39:29.041Z,5.30
2018-05-31T18:41:56.866Z,3.40
2018-05-31T18:44:24.411Z,3.20
2018-05-31T18:46:51.904Z,2.90
2018-05-31T18:49:20.344Z,2.50
2018-05-31T18:51:47.865Z,3.10
2018-05-31T18:54:17.037Z,2.60
2018-05-31T18:56:45.416Z,2.67
2018-05-31T18:59:12.973Z,2.77
2018-05-31T19:01:40.734Z,3.03
2018-05-31T19:04:08.371Z,3.30
2018-05-31T19:06:35.888Z,2.67
2018-05-31T19:09:04.451Z,3.00
2018-05-31T19:11:31.985Z,2.77
2018-05-31T19:13:59.547Z,2.80
2018-05-31T19:16:27.269Z,2.70
2018-05-31T19:19:01.619Z,2.90
2018-05-31T19:21:29.155Z,2.90
2018-05-31T19:23:56.671Z,3.20
2018-05-31T19:26:24.672Z,3.87
2018-05-31T19:28:52.182Z,2.73
2018-05-31T19:31:19.723Z,3.57
2018-05-31T19:33:47.251Z,3.60
2018-05-31T19:36:20.804Z,5.20
2018-05-31T19:38:48.434Z,4.50
2018-05-31T19:41:16.393Z,5.30
2018-05-31T19:43:49.593Z,5.77
2018-05-31T19:46:17.588Z,7.20
2018-05-31T19:48:45.547Z,5.53
2018-05-31T19:51:13.069Z,5.80
2018-05-31T19:53:44.028Z,7.00
2018-05-31T19:56:11.556Z,6.60
2018-05-31T19:58:46.074Z,6.77
2018-05-31T20:01:19.155Z,7.07
2018-05-31T20:03:47.772Z,7.23
2018-05-31T20:06:15.332Z,7.53
2018-05-31T20:08:43.092Z,7.63
2018-05-31T20:11:10.839Z,8.00
2018-05-31T20:13:38.368Z,7.80
2018-05-31T20:16:05.866Z,8.10
2018-05-31T20:18:33.382Z,7.03
2018-05-31T20:21:01.020Z,8.50
2018-05-31T20:23:28.537Z,8.97
2018-05-31T20:25:56.809Z,10.20
2018-05-31T20:28:25.088Z,8.93
2018-05-31T20:30:53.076Z,8.10
2018-05-31T20:33:20.946Z,9.77
2018-05-31T20:35:48.436Z,9.03
2018-05-31T20:38:16.001Z,8.03
2018-05-31T20:40:43.921Z,8.40
2018-05-31T20:43:11.441Z,10.97
2018-05-31T20:45:40.021Z,8.13
2018-05-31T20:48:09.027Z,8.07
2018-05-31T20:50:36.534Z,8.93
2018-05-31T20:53:04.025Z,10.87
2018-05-31T20:55:31.975Z,8.17
2018-05-31T20:57:59.462Z,8.70
2018-05-31T21:00:27.773Z,8.60
2018-05-31T21:02:55.311Z,10.70
2018-05-31T21:05:23.407Z,8.23
2018-05-31T21:07:50.915Z,7.53
2018-05-31T21:10:18.457Z,8.70
2018-05-31T21:12:45.964Z,10.67
2018-05-31T21:15:14.786Z,7.80
2018-05-31T21:17:42.307Z,8.10
2018-05-31T21:20:10.582Z,8.40
2018-05-31T21:22:39.206Z,8.17
2018-05-31T21:25:06.709Z,10.07
2018-05-31T21:27:34.971Z,8.40
2018-05-31T21:30:02.496Z,7.80
2018-05-31T21:32:30.771Z,8.00
2018-05-31T21:34:58.274Z,11.10
2018-05-31T21:37:25.995Z,8.67
2018-05-31T21:39:53.630Z,8.73
2018-05-31T21:42:21.890Z,8.37
2018-05-31T21:44:49.742Z,11.33
2018-05-31T21:47:17.601Z,8.50
2018-05-31T21:49:45.089Z,8.43
2018-05-31T21:52:13.364Z,10.57
2018-05-31T21:54:40.856Z,8.20
